createdAt,value
2023-06-10T00:00:54.175Z,57.64
2023-06-10T00:02:00.897Z,57.55
2023-06-10T00:03:03.283Z,57.81
2023-06-10T00:04:05.889Z,57.32
2023-06-10T00:05:09.168Z,58.18
2023-06-10T00:06:11.365Z,58.38
2023-06-10T00:07:13.241Z,58.49
2023-06-10T00:08:16.999Z,58.62
2023-06-10T00:09:19.576Z,59.01
2023-06-10T00:10:21.439Z,58.03
2023-06-10T00:11:23.303Z,57.55
2023-06-10T00:12:25.012Z,58.04
2023-06-10T00:13:26.957Z,58.20
2023-06-10T00:14:28.913Z,58.67
2023-06-10T00:15:31.330Z,58.81
2023-06-10T00:16:33.315Z,59.02
2023-06-10T00:17:35.350Z,59.00
2023-06-10T00:18:39.895Z,58.83
2023-06-10T00:19:42.274Z,58.80
2023-06-10T00:20:44.678Z,58.91
2023-06-10T00:21:46.427Z,58.92
2023-06-10T00:22:49.932Z,59.15
2023-06-10T00:23:51.845Z,59.70
2023-06-10T00:24:53.629Z,59.75
2023-06-10T00:25:55.431Z,59.68
2023-06-10T00:26:57.154Z,60.52
2023-06-10T00:27:58.993Z,60.95
2023-06-10T00:29:01.243Z,60.97
2023-06-10T00:30:05.567Z,60.81
2023-06-10T00:31:07.304Z,60.52
2023-06-10T00:32:09.380Z,60.72
2023-06-10T00:33:11.576Z,60.28
2023-06-10T00:34:13.602Z,60.05
2023-06-10T00:35:15.490Z,59.79
2023-06-10T00:36:17.227Z,59.88
2023-06-10T00:37:19.084Z,60.01
2023-06-10T00:38:20.856Z,59.38
2023-06-10T00:39:22.607Z,59.52
2023-06-10T00:40:24.393Z,59.98
2023-06-10T00:41:27.608Z,60.82
2023-06-10T00:42:29.361Z,60.18
2023-06-10T00:43:31.145Z,59.92
2023-06-10T00:44:32.874Z,60.10
2023-06-10T00:45:34.907Z,60.25
2023-06-10T00:46:38.653Z,60.31
2023-06-10T00:47:41.038Z,60.28
2023-06-10T00:48:44.898Z,59.70
2023-06-10T00:49:47.494Z,60.08
2023-06-10T00:50:50.092Z,59.61
2023-06-10T00:51:53.737Z,59.55
2023-06-10T00:52:56.825Z,59.25
2023-06-10T00:53:58.905Z,59.88
2023-06-10T00:55:00.957Z,60.59
2023-06-10T00:56:02.741Z,60.66
2023-06-10T00:57:05.490Z,60.46
2023-06-10T00:58:07.304Z,60.66
2023-06-10T00:59:09.255Z,60.48
2023-06-10T01:00:12.056Z,60.84
2023-06-10T01:01:14.699Z,60.76
2023-06-10T01:02:16.861Z,60.64
2023-06-10T01:03:19.761Z,60.44
2023-06-10T01:04:22.962Z,60.11
2023-06-10T01:05:26.155Z,60.01
2023-06-10T01:06:58.489Z,60.40
2023-06-10T01:08:20.796Z,58.60
2023-06-10T01:09:37.451Z,58.91
2023-06-10T01:11:09.975Z,59.59
2023-06-10T01:12:20.233Z,60.17
2023-06-10T01:13:25.150Z,60.14
2023-06-10T01:14:27.876Z,60.31
2023-06-10T01:15:33.280Z,60.55
2023-06-10T01:16:38.185Z,60.63
2023-06-10T01:17:55.341Z,60.59
2023-06-10T01:18:57.687Z,60.66
2023-06-10T01:19:59.937Z,61.17
2023-06-10T01:21:01.814Z,60.89
2023-06-10T01:22:04.674Z,61.00
2023-06-10T01:23:07.592Z,61.08
2023-06-10T01:24:09.617Z,61.09
2023-06-10T01:25:13.071Z,60.18
2023-06-10T01:26:16.295Z,61.07
2023-06-10T01:27:23.253Z,61.86
2023-06-10T01:28:37.290Z,61.58
2023-06-10T01:29:46.570Z,61.32
2023-06-10T01:31:16.454Z,61.75
2023-06-10T01:32:28.016Z,61.20
2023-06-10T01:33:35.013Z,61.71
2023-06-10T01:34:38.767Z,61.96
2023-06-10T01:35:41.159Z,61.68
2023-06-10T01:36:47.251Z,62.64
2023-06-10T01:37:50.187Z,62.58
2023-06-10T01:38:54.927Z,62.46
2023-06-10T01:39:59.742Z,62.03
2023-06-10T01:41:02.191Z,62.13
2023-06-10T01:42:05.950Z,62.23
2023-06-10T01:43:07.690Z,61.86
2023-06-10T01:44:10.292Z,62.93
2023-06-10T01:45:12.312Z,62.84
2023-06-10T01:46:14.931Z,62.89
2023-06-10T01:47:16.744Z,63.07
2023-06-10T01:48:18.503Z,63.07
2023-06-10T01:49:20.398Z,64.11
2023-06-10T01:50:22.354Z,64.35
2023-06-10T01:51:24.189Z,64.99
2023-06-10T01:52:26.571Z,65.42
2023-06-10T01:53:28.384Z,65.02
2023-06-10T01:54:30.424Z,65.87
2023-06-10T01:55:32.579Z,66.20
2023-06-10T01:56:34.811Z,66.33
2023-06-10T01:57:36.619Z,66.53
2023-06-10T01:58:38.359Z,66.38
2023-06-10T01:59:40.346Z,66.84
2023-06-10T02:00:42.104Z,66.74
2023-06-10T02:01:43.856Z,66.60
2023-06-10T02:02:45.924Z,66.52
2023-06-10T02:03:47.741Z,66.65
2023-06-10T02:04:49.557Z,67.02
2023-06-10T02:05:51.742Z,67.27
2023-06-10T02:06:54.546Z,67.48
2023-06-10T02:07:56.312Z,67.26
2023-06-10T02:08:58.245Z,67.35
2023-06-10T02:10:00.018Z,67.40
2023-06-10T02:11:01.864Z,67.82
2023-06-10T02:12:04.828Z,67.76
2023-06-10T02:13:06.806Z,68.09
2023-06-10T02:14:08.625Z,67.62
2023-06-10T02:15:10.580Z,67.44
2023-06-10T02:16:13.705Z,67.42
2023-06-10T02:17:15.920Z,67.35
2023-06-10T02:18:17.639Z,67.23
2023-06-10T02:19:22.692Z,67.31
2023-06-10T02:20:24.561Z,67.50
2023-06-10T02:21:26.335Z,66.93
2023-06-10T02:22:28.144Z,66.61
2023-06-10T02:23:29.893Z,66.52
2023-06-10T02:24:31.626Z,66.86
2023-06-10T02:25:33.382Z,66.39
2023-06-10T02:26:35.111Z,66.62
2023-06-10T02:27:36.861Z,66.70
2023-06-10T02:28:38.783Z,66.84
2023-06-10T02:29:40.749Z,67.05
2023-06-10T02:30:42.996Z,66.94
2023-06-10T02:31:44.796Z,66.73
2023-06-10T02:32:49.484Z,66.91
2023-06-10T02:33:51.412Z,66.65
2023-06-10T02:34:53.637Z,66.91
2023-06-10T02:35:56.312Z,67.50
2023-06-10T02:36:58.374Z,67.05
2023-06-10T02:38:00.152Z,67.28
2023-06-10T02:39:01.894Z,67.32
2023-06-10T02:40:04.738Z,67.99
2023-06-10T02:41:06.475Z,68.06
2023-06-10T02:42:08.627Z,67.92
2023-06-10T02:43:10.717Z,67.51
2023-06-10T02:44:12.450Z,67.22
2023-06-10T02:45:14.195Z,67.57
2023-06-10T02:46:16.354Z,67.12
2023-06-10T02:47:18.195Z,67.56
2023-06-10T02:48:19.958Z,66.83
2023-06-10T02:49:21.752Z,67.19
2023-06-10T02:50:23.583Z,67.45
2023-06-10T02:51:25.320Z,66.33
2023-06-10T02:52:27.080Z,67.81
2023-06-10T02:53:28.815Z,66.63
2023-06-10T02:54:30.672Z,68.58
2023-06-10T02:55:33.611Z,67.88
2023-06-10T02:56:36.087Z,67.69
2023-06-10T02:57:37.891Z,67.07
2023-06-10T02:58:39.733Z,66.38
2023-06-10T02:59:42.150Z,66.49
2023-06-10T03:00:44.405Z,66.65
2023-06-10T03:01:47.861Z,66.74
2023-06-10T03:02:50.180Z,66.36
2023-06-10T03:03:52.307Z,66.37
2023-06-10T03:04:54.351Z,67.45
2023-06-10T03:05:57.939Z,68.17
2023-06-10T03:07:01.686Z,68.51
2023-06-10T03:08:03.496Z,68.30
2023-06-10T03:09:11.377Z,68.58
2023-06-10T03:10:13.139Z,68.90
2023-06-10T03:11:14.890Z,68.59
2023-06-10T03:12:17.205Z,69.05
2023-06-10T03:13:19.038Z,69.16
2023-06-10T03:14:20.812Z,69.37
2023-06-10T03:15:23.015Z,68.93
2023-06-10T03:16:26.504Z,69.00
2023-06-10T03:17:28.433Z,68.95
2023-06-10T03:18:30.234Z,68.58
2023-06-10T03:19:32.144Z,68.55
2023-06-10T03:20:38.181Z,68.59
2023-06-10T03:21:40.662Z,68.43
2023-06-10T03:22:42.450Z,68.74
2023-06-10T03:23:44.283Z,68.67
2023-06-10T03:24:47.724Z,68.39
2023-06-10T03:25:49.456Z,67.17
2023-06-10T03:26:51.216Z,67.29
2023-06-10T03:27:52.976Z,67.50
2023-06-10T03:28:54.745Z,67.55
2023-06-10T03:29:56.502Z,67.11
2023-06-10T03:30:58.725Z,67.18
2023-06-10T03:32:00.858Z,67.60
2023-06-10T03:33:02.788Z,67.57
2023-06-10T03:34:04.609Z,67.69
2023-06-10T03:35:08.256Z,67.78
2023-06-10T03:36:10.910Z,67.78
2023-06-10T03:37:12.669Z,67.84
2023-06-10T03:38:14.523Z,68.22
2023-06-10T03:39:16.612Z,69.17
2023-06-10T03:40:18.466Z,69.01
2023-06-10T03:41:20.319Z,68.98
2023-06-10T03:42:22.114Z,68.81
2023-06-10T03:43:23.850Z,69.06
2023-06-10T03:44:27.246Z,69.06
2023-06-10T03:45:33.329Z,69.20
2023-06-10T03:46:35.493Z,69.58
2023-06-10T03:47:38.370Z,69.99
2023-06-10T03:48:40.772Z,69.80
2023-06-10T03:49:42.679Z,69.87
2023-06-10T03:50:44.459Z,70.45
2023-06-10T03:51:46.591Z,70.47
2023-06-10T03:52:48.361Z,70.37
2023-06-10T03:53:50.091Z,70.01
2023-06-10T03:54:51.966Z,69.56
2023-06-10T03:55:53.767Z,69.33
2023-06-10T03:56:55.538Z,70.68
2023-06-10T03:57:57.299Z,71.12
2023-06-10T03:58:59.044Z,71.18
2023-06-10T04:00:00.902Z,71.06
2023-06-10T04:01:02.759Z,70.76
2023-06-10T04:02:06.210Z,70.00
2023-06-10T04:03:10.523Z,70.33
2023-06-10T04:04:17.732Z,70.34
2023-06-10T04:05:23.110Z,70.13
2023-06-10T04:06:26.743Z,69.95
2023-06-10T04:07:31.152Z,70.53
2023-06-10T04:08:34.071Z,70.55
2023-06-10T04:09:37.997Z,70.09
2023-06-10T04:10:39.840Z,70.70
2023-06-10T04:11:41.770Z,70.66
2023-06-10T04:12:43.700Z,71.33
2023-06-10T04:13:45.431Z,70.27
2023-06-10T04:14:47.170Z,69.51
2023-06-10T04:15:49.007Z,69.51
2023-06-10T04:16:51.511Z,68.95
2023-06-10T04:17:54.028Z,68.86
2023-06-10T04:18:56.562Z,68.85
2023-06-10T04:19:59.216Z,70.48
2023-06-10T04:21:00.972Z,71.15
2023-06-10T04:22:05.133Z,71.78
2023-06-10T04:23:06.989Z,72.06
2023-06-10T04:24:08.945Z,72.12
2023-06-10T04:25:11.307Z,72.71
2023-06-10T04:26:13.684Z,72.53
2023-06-10T04:27:15.692Z,72.41
2023-06-10T04:28:17.470Z,72.60
2023-06-10T04:29:19.238Z,73.00
2023-06-10T04:30:21.319Z,72.41
2023-06-10T04:31:23.317Z,72.49
2023-06-10T04:32:25.121Z,72.84
2023-06-10T04:33:26.912Z,72.66
2023-06-10T04:34:29.037Z,71.49
2023-06-10T04:35:30.843Z,71.85
2023-06-10T04:36:32.689Z,71.39
2023-06-10T04:37:34.554Z,70.86
2023-06-10T04:38:36.390Z,69.48
2023-06-10T04:39:39.510Z,69.59
2023-06-10T04:40:41.522Z,69.97
2023-06-10T04:41:43.347Z,70.64
2023-06-10T04:42:45.103Z,70.90
2023-06-10T04:43:46.852Z,71.00
2023-06-10T04:44:48.624Z,70.49
2023-06-10T04:45:50.385Z,71.15
2023-06-10T04:46:52.265Z,70.92
2023-06-10T04:47:57.120Z,69.27
2023-06-10T04:48:59.248Z,68.53
2023-06-10T04:50:05.441Z,67.18
2023-06-10T04:51:07.222Z,68.25
2023-06-10T04:52:09.047Z,68.21
2023-06-10T04:53:10.785Z,66.92
2023-06-10T04:54:12.536Z,66.39
2023-06-10T04:55:14.372Z,66.34
2023-06-10T04:56:17.355Z,63.49
2023-06-10T04:57:19.716Z,67.02
2023-06-10T04:58:21.447Z,65.36
2023-06-10T04:59:23.202Z,65.81
2023-06-10T05:00:24.935Z,66.31
2023-06-10T05:01:27.128Z,65.75
2023-06-10T05:02:28.907Z,64.94
2023-06-10T05:03:30.904Z,63.19
2023-06-10T05:04:32.858Z,63.07
2023-06-10T05:05:34.634Z,63.92
2023-06-10T05:06:37.461Z,62.46
2023-06-10T05:07:39.204Z,60.91
2023-06-10T05:08:41.032Z,60.76
2023-06-10T05:09:42.826Z,61.00
2023-06-10T05:10:44.720Z,61.57
2023-06-10T05:11:47.424Z,62.86
2023-06-10T05:12:49.165Z,62.84
2023-06-10T05:13:51.383Z,64.28
2023-06-10T05:14:53.093Z,65.79
2023-06-10T05:15:57.813Z,63.22
2023-06-10T05:16:59.649Z,60.09
2023-06-10T05:18:03.776Z,59.96
2023-06-10T05:19:08.357Z,60.20
2023-06-10T05:20:11.115Z,60.00
2023-06-10T05:21:13.034Z,57.57
2023-06-10T05:22:15.487Z,56.86
2023-06-10T05:23:17.291Z,56.27
2023-06-10T05:24:19.093Z,56.14
2023-06-10T05:25:20.988Z,57.25
2023-06-10T05:26:22.971Z,54.37
2023-06-10T05:27:25.626Z,55.50
2023-06-10T05:28:27.523Z,56.86
2023-06-10T05:29:29.312Z,56.22
2023-06-10T05:30:31.160Z,54.25
2023-06-10T05:31:33.050Z,53.60
2023-06-10T05:32:37.334Z,53.51
2023-06-10T05:33:39.146Z,54.34
2023-06-10T05:34:40.961Z,54.73
2023-06-10T05:35:43.062Z,53.40
2023-06-10T05:36:45.007Z,53.88
2023-06-10T05:37:46.778Z,54.49
2023-06-10T05:38:48.838Z,52.73
2023-06-10T05:39:50.612Z,52.41
2023-06-10T05:40:52.378Z,52.40
2023-06-10T05:41:57.130Z,53.06
2023-06-10T05:42:58.965Z,51.55
2023-06-10T05:44:00.725Z,51.47
2023-06-10T05:45:03.570Z,51.98
2023-06-10T05:46:05.442Z,52.16
2023-06-10T05:47:07.513Z,52.70
2023-06-10T05:48:09.380Z,50.83
2023-06-10T05:49:11.149Z,50.06
2023-06-10T05:50:12.953Z,50.63
2023-06-10T05:51:16.065Z,50.09
2023-06-10T05:52:17.854Z,50.60
2023-06-10T05:53:19.697Z,50.13
2023-06-10T05:54:21.428Z,50.26
2023-06-10T05:55:23.232Z,49.75
2023-06-10T05:56:25.073Z,51.08
2023-06-10T05:57:27.364Z,50.57
2023-06-10T05:58:29.189Z,51.68
2023-06-10T05:59:30.949Z,51.81
2023-06-10T06:00:32.725Z,50.63
2023-06-10T06:01:34.594Z,50.49
2023-06-10T06:02:39.126Z,47.89
2023-06-10T06:03:41.302Z,48.26
2023-06-10T06:04:43.168Z,49.24
2023-06-10T06:05:45.173Z,49.08
2023-06-10T06:06:47.031Z,48.49
2023-06-10T06:07:48.873Z,49.27
2023-06-10T06:08:50.716Z,47.66
2023-06-10T06:09:52.460Z,48.23
2023-06-10T06:10:54.211Z,48.22
2023-06-10T06:11:56.065Z,47.98
2023-06-10T06:12:58.147Z,48.50
2023-06-10T06:13:59.978Z,49.19
2023-06-10T06:15:01.716Z,48.61
2023-06-10T06:16:03.654Z,48.75
2023-06-10T06:17:05.904Z,49.16
2023-06-10T06:18:07.738Z,47.90
2023-06-10T06:19:12.543Z,47.28
2023-06-10T06:20:14.370Z,47.22
2023-06-10T06:21:16.374Z,47.04
2023-06-10T06:22:21.575Z,46.31
2023-06-10T06:23:23.387Z,45.25
2023-06-10T06:24:25.333Z,45.67
2023-06-10T06:25:27.177Z,45.46
2023-06-10T06:26:28.967Z,45.04
2023-06-10T06:27:30.738Z,45.51
2023-06-10T06:28:32.681Z,46.00
2023-06-10T06:29:34.549Z,46.67
2023-06-10T06:30:37.436Z,48.18
2023-06-10T06:31:39.291Z,45.48
2023-06-10T06:32:41.167Z,45.59
2023-06-10T06:33:43.043Z,45.45
2023-06-10T06:34:47.964Z,44.82
2023-06-10T06:35:51.139Z,44.59
2023-06-10T06:36:52.914Z,45.03
2023-06-10T06:37:54.701Z,45.60
2023-06-10T06:38:56.465Z,45.08
2023-06-10T06:40:01.468Z,44.73
2023-06-10T06:41:07.522Z,45.09
2023-06-10T06:42:09.555Z,45.00
2023-06-10T06:43:11.336Z,44.98
2023-06-10T06:44:13.149Z,44.45
2023-06-10T06:45:15.052Z,43.58
2023-06-10T06:46:18.106Z,43.93
2023-06-10T06:47:21.118Z,42.74
2023-06-10T06:48:23.166Z,42.53
2023-06-10T06:49:25.039Z,42.53
2023-06-10T06:50:26.835Z,42.59
2023-06-10T06:51:28.756Z,42.18
2023-06-10T06:52:30.542Z,42.78
2023-06-10T06:53:32.458Z,43.15
2023-06-10T06:54:34.234Z,42.74
2023-06-10T06:55:36.024Z,42.52
2023-06-10T06:56:37.838Z,43.33
2023-06-10T06:57:39.622Z,42.73
2023-06-10T06:58:42.694Z,42.54
2023-06-10T06:59:44.429Z,44.21
2023-06-10T07:00:46.248Z,42.41
2023-06-10T07:01:48.070Z,43.16
2023-06-10T07:02:50.114Z,42.30
2023-06-10T07:03:51.959Z,43.35
2023-06-10T07:04:56.641Z,43.21
2023-06-10T07:05:58.468Z,43.30
2023-06-10T07:07:00.230Z,42.26
2023-06-10T07:08:05.263Z,43.30
2023-06-10T07:09:07.791Z,43.80
2023-06-10T07:10:09.686Z,43.33
2023-06-10T07:11:11.544Z,42.22
2023-06-10T07:12:13.438Z,42.03
2023-06-10T07:13:15.520Z,42.20
2023-06-10T07:14:17.347Z,42.32
2023-06-10T07:15:19.450Z,42.83
2023-06-10T07:16:22.721Z,41.66
2023-06-10T07:17:24.544Z,42.03
2023-06-10T07:18:26.286Z,42.91
2023-06-10T07:19:28.033Z,40.60
2023-06-10T07:20:29.774Z,41.79
2023-06-10T07:21:32.043Z,44.55
2023-06-10T07:22:33.891Z,42.32
2023-06-10T07:23:35.678Z,44.41
2023-06-10T07:24:37.438Z,42.22
2023-06-10T07:25:39.239Z,39.36
2023-06-10T07:26:41.021Z,40.06
2023-06-10T07:27:42.796Z,37.93
2023-06-10T07:28:44.859Z,37.20
2023-06-10T07:29:46.600Z,37.84
2023-06-10T07:30:48.396Z,37.30
2023-06-10T07:31:50.232Z,37.43
2023-06-10T07:32:52.776Z,38.55
2023-06-10T07:33:54.609Z,36.70
2023-06-10T07:34:56.582Z,36.80
2023-06-10T07:35:58.348Z,36.85
2023-06-10T07:37:00.236Z,36.88
2023-06-10T07:38:01.987Z,37.36
2023-06-10T07:39:03.931Z,37.35
2023-06-10T07:40:06.535Z,38.02
2023-06-10T07:41:08.339Z,37.50
2023-06-10T07:42:10.378Z,37.96
2023-06-10T07:43:12.176Z,38.06
2023-06-10T07:44:13.925Z,39.26
2023-06-10T07:45:15.662Z,38.10
2023-06-10T07:46:17.528Z,37.52
2023-06-10T07:47:19.630Z,36.72
2023-06-10T07:48:21.412Z,38.13
2023-06-10T07:49:23.156Z,37.56
2023-06-10T07:50:25.018Z,37.24
2023-06-10T07:51:27.818Z,37.57
2023-06-10T07:52:29.955Z,38.27
2023-06-10T07:53:31.798Z,37.89
2023-06-10T07:54:33.602Z,38.40
2023-06-10T07:55:35.411Z,39.83
2023-06-10T07:56:37.237Z,39.45
2023-06-10T07:57:39.835Z,38.21
2023-06-10T07:58:41.637Z,38.79
2023-06-10T07:59:45.477Z,39.13
2023-06-10T08:00:48.974Z,36.21
2023-06-10T08:01:50.719Z,38.27
2023-06-10T08:02:53.296Z,39.90
2023-06-10T08:03:55.267Z,36.92
2023-06-10T08:04:57.239Z,37.09
2023-06-10T08:05:59.045Z,35.70
2023-06-10T08:07:01.050Z,35.32
2023-06-10T08:08:04.030Z,35.35
2023-06-10T08:09:06.329Z,35.12
2023-06-10T08:10:08.722Z,34.42
2023-06-10T08:11:12.234Z,36.32
2023-06-10T08:12:14.219Z,36.19
2023-06-10T08:13:16.092Z,37.00
2023-06-10T08:14:17.914Z,35.71
2023-06-10T08:15:19.792Z,34.29
2023-06-10T08:16:21.670Z,33.43
2023-06-10T08:17:23.664Z,33.43
2023-06-10T08:18:25.556Z,33.49
2023-06-10T08:19:27.465Z,32.79
2023-06-10T08:20:29.307Z,33.70
2023-06-10T08:21:31.072Z,32.28
2023-06-10T08:22:33.074Z,32.10
2023-06-10T08:23:34.960Z,31.14
2023-06-10T08:24:37.027Z,33.21
2023-06-10T08:25:38.784Z,33.13
2023-06-10T08:26:40.616Z,31.28
2023-06-10T08:27:42.378Z,31.38
2023-06-10T08:28:44.188Z,31.53
2023-06-10T08:29:45.972Z,31.67
2023-06-10T08:30:47.988Z,31.70
2023-06-10T08:31:50.005Z,30.37
2023-06-10T08:32:53.317Z,32.06
2023-06-10T08:33:55.145Z,31.76
2023-06-10T08:34:56.975Z,33.38
2023-06-10T08:35:58.757Z,31.72
2023-06-10T08:37:00.732Z,32.95
2023-06-10T08:38:02.478Z,31.92
2023-06-10T08:39:04.232Z,32.51
2023-06-10T08:40:06.873Z,32.58
2023-06-10T08:41:11.143Z,33.62
2023-06-10T08:42:24.688Z,31.84
2023-06-10T08:43:32.381Z,31.42
2023-06-10T08:44:39.152Z,31.53
2023-06-10T08:45:44.336Z,31.38
2023-06-10T08:46:46.713Z,31.23
2023-06-10T08:47:53.076Z,30.68
2023-06-10T08:48:56.755Z,30.92
2023-06-10T08:50:05.053Z,30.67
2023-06-10T08:51:07.207Z,31.01
2023-06-10T08:52:11.343Z,30.45
2023-06-10T08:53:18.380Z,29.39
2023-06-10T08:54:23.415Z,30.65
2023-06-10T08:55:32.669Z,30.96
2023-06-10T08:56:40.436Z,29.32
2023-06-10T08:57:43.790Z,29.77
2023-06-10T08:58:50.297Z,31.12
2023-06-10T08:59:54.034Z,31.23
2023-06-10T09:00:56.332Z,29.84
2023-06-10T09:01:58.594Z,29.88
2023-06-10T09:03:04.693Z,29.69
2023-06-10T09:04:07.528Z,28.43
2023-06-10T09:05:10.334Z,29.28
2023-06-10T09:06:12.257Z,29.38
2023-06-10T09:07:15.752Z,28.51
2023-06-10T09:08:20.516Z,28.62
2023-06-10T09:09:23.799Z,28.28
2023-06-10T09:10:26.457Z,27.33
2023-06-10T09:11:28.517Z,28.62
2023-06-10T09:12:30.718Z,29.69
2023-06-10T09:13:32.901Z,28.77
2023-06-10T09:14:34.672Z,29.99
2023-06-10T09:15:36.537Z,29.17
2023-06-10T09:16:39.573Z,31.66
2023-06-10T09:17:42.384Z,28.74
2023-06-10T09:18:44.788Z,29.38
2023-06-10T09:19:47.549Z,31.44
2023-06-10T09:20:49.365Z,31.20
2023-06-10T09:21:51.270Z,31.52
2023-06-10T09:22:53.221Z,30.69
2023-06-10T09:23:55.136Z,29.20
2023-06-10T09:25:10.236Z,29.42
2023-06-10T09:26:12.784Z,28.17
2023-06-10T09:27:14.636Z,27.23
2023-06-10T09:28:17.201Z,28.82
2023-06-10T09:29:18.954Z,28.18
2023-06-10T09:30:47.030Z,27.24
2023-06-10T09:31:48.849Z,28.12
2023-06-10T09:32:50.815Z,26.15
2023-06-10T09:33:52.584Z,26.72
2023-06-10T09:34:54.469Z,26.43
2023-06-10T09:35:58.134Z,28.23
2023-06-10T09:37:01.431Z,28.68
2023-06-10T09:38:03.664Z,28.03
2023-06-10T09:39:06.382Z,27.74
2023-06-10T09:40:11.626Z,27.71
2023-06-10T09:41:16.441Z,27.65
2023-06-10T09:42:19.682Z,28.39
2023-06-10T09:43:22.085Z,27.84
2023-06-10T09:44:25.726Z,29.33
2023-06-10T09:45:34.266Z,28.40
2023-06-10T09:46:36.449Z,29.23
2023-06-10T09:47:38.244Z,29.18
2023-06-10T09:48:44.946Z,28.44
2023-06-10T09:49:46.719Z,28.00
2023-06-10T09:50:49.809Z,28.64
2023-06-10T09:51:53.123Z,28.72
2023-06-10T09:52:55.055Z,28.82
2023-06-10T09:53:56.867Z,28.53
2023-06-10T09:55:03.378Z,28.44
2023-06-10T09:56:06.492Z,27.52
2023-06-10T09:57:11.203Z,28.91
2023-06-10T09:58:13.089Z,28.31
2023-06-10T09:59:14.945Z,28.71
2023-06-10T10:00:17.692Z,27.24
2023-06-10T10:01:19.672Z,28.33
2023-06-10T10:02:21.718Z,27.68
2023-06-10T10:03:24.687Z,28.74
2023-06-10T10:04:27.520Z,29.29
2023-06-10T10:05:31.084Z,28.35
2023-06-10T10:06:33.134Z,28.28
2023-06-10T10:07:34.892Z,28.93
2023-06-10T10:08:36.756Z,28.76
2023-06-10T10:09:39.340Z,28.76
2023-06-10T10:10:41.209Z,28.69
2023-06-10T10:11:43.676Z,28.75
2023-06-10T10:12:52.252Z,29.63
2023-06-10T10:13:54.461Z,28.65
2023-06-10T10:14:57.413Z,28.97
2023-06-10T10:16:02.955Z,29.27
2023-06-10T10:17:12.083Z,28.84
2023-06-10T10:18:20.774Z,28.10
2023-06-10T10:19:29.387Z,29.08
2023-06-10T10:20:34.925Z,30.00
2023-06-10T10:21:44.226Z,28.83
2023-06-10T10:22:48.996Z,29.69
2023-06-10T10:24:05.699Z,29.19
2023-06-10T10:25:15.059Z,30.71
2023-06-10T10:26:18.597Z,31.07
2023-06-10T10:27:34.651Z,32.65
2023-06-10T10:28:46.163Z,32.66
2023-06-10T10:29:52.341Z,32.96
2023-06-10T10:31:00.849Z,33.66
2023-06-10T10:32:04.167Z,33.37
2023-06-10T10:33:13.078Z,34.10
2023-06-10T10:34:22.836Z,34.00
2023-06-10T10:35:29.196Z,33.20
2023-06-10T10:36:31.726Z,33.67
2023-06-10T10:37:33.927Z,33.53
2023-06-10T10:38:37.149Z,33.22
2023-06-10T10:39:38.987Z,34.10
2023-06-10T10:40:41.781Z,33.64
2023-06-10T10:41:44.200Z,33.51
2023-06-10T10:42:46.599Z,33.54
2023-06-10T10:43:49.429Z,33.89
2023-06-10T10:44:52.462Z,34.22
2023-06-10T10:46:07.754Z,33.60
2023-06-10T10:47:11.420Z,34.64
2023-06-10T10:48:14.752Z,35.23
2023-06-10T10:49:17.462Z,35.02
2023-06-10T10:50:20.946Z,35.00
2023-06-10T10:51:25.653Z,34.66
2023-06-10T10:52:47.686Z,34.30
2023-06-10T10:54:12.153Z,33.63
2023-06-10T10:55:14.576Z,34.05
2023-06-10T10:56:19.744Z,34.39
2023-06-10T10:57:25.346Z,34.17
2023-06-10T10:58:27.343Z,34.13
2023-06-10T10:59:57.910Z,35.64
2023-06-10T11:01:00.093Z,34.68
2023-06-10T11:02:02.029Z,34.94
2023-06-10T11:03:06.744Z,34.85
2023-06-10T11:04:12.008Z,35.43
2023-06-10T11:05:17.813Z,35.50
2023-06-10T11:06:20.174Z,36.36
2023-06-10T11:07:23.247Z,36.06
2023-06-10T11:08:34.183Z,35.30
2023-06-10T11:09:36.044Z,35.09
2023-06-10T11:10:42.901Z,34.84
2023-06-10T11:11:51.796Z,35.12
2023-06-10T11:12:56.337Z,35.22
2023-06-10T11:14:10.831Z,33.42
2023-06-10T11:15:20.475Z,33.59
2023-06-10T11:16:22.481Z,33.99
2023-06-10T11:17:24.820Z,33.28
2023-06-10T11:18:40.703Z,35.25
2023-06-10T11:19:48.093Z,35.08
2023-06-10T11:20:49.913Z,33.44
2023-06-10T11:22:11.123Z,32.89
2023-06-10T11:23:29.236Z,33.09
2023-06-10T11:24:31.513Z,33.49
2023-06-10T11:25:42.348Z,33.98
2023-06-10T11:26:45.829Z,33.59
2023-06-10T11:27:53.070Z,33.15
2023-06-10T11:28:54.982Z,34.59
2023-06-10T11:30:20.762Z,33.87
2023-06-10T11:31:24.707Z,36.00
2023-06-10T11:32:34.800Z,35.23
2023-06-10T11:33:40.277Z,36.86
2023-06-10T11:34:42.085Z,37.39
2023-06-10T11:35:44.435Z,38.07
2023-06-10T11:36:47.019Z,40.67
2023-06-10T11:37:49.575Z,42.95
2023-06-10T11:38:56.407Z,44.35
2023-06-10T11:39:59.500Z,45.32
2023-06-10T11:41:03.510Z,47.67
2023-06-10T11:42:06.261Z,48.09
2023-06-10T11:43:08.139Z,48.06
2023-06-10T11:44:19.611Z,48.19
2023-06-10T11:45:22.021Z,50.00
2023-06-10T11:46:24.358Z,49.24
2023-06-10T11:47:27.971Z,48.46
2023-06-10T11:48:31.595Z,49.61
2023-06-10T11:49:33.407Z,49.83
2023-06-10T11:50:35.336Z,50.15
2023-06-10T11:51:40.140Z,51.42
2023-06-10T11:52:42.676Z,51.15
2023-06-10T11:53:48.668Z,50.52
2023-06-10T11:54:57.235Z,51.99
2023-06-10T11:55:59.165Z,50.58
2023-06-10T11:57:09.333Z,51.25
2023-06-10T11:58:21.743Z,50.36
2023-06-10T11:59:28.734Z,51.32
2023-06-10T12:00:30.491Z,50.95
2023-06-10T12:01:33.915Z,51.19
2023-06-10T12:02:35.889Z,51.22
2023-06-10T12:03:39.473Z,49.53
2023-06-10T12:04:41.365Z,50.75
2023-06-10T12:06:15.550Z,50.76
2023-06-10T12:07:21.058Z,51.97
2023-06-10T12:08:22.969Z,52.25
2023-06-10T12:09:30.284Z,52.67
2023-06-10T12:10:32.371Z,53.30
2023-06-10T12:11:35.094Z,52.63
2023-06-10T12:12:38.154Z,52.14
2023-06-10T12:13:49.615Z,52.16
2023-06-10T12:14:59.839Z,51.67
2023-06-10T12:16:09.212Z,50.85
2023-06-10T12:17:11.558Z,50.61
2023-06-10T12:18:21.002Z,51.32
2023-06-10T12:19:23.132Z,51.57
2023-06-10T12:20:29.927Z,50.58
2023-06-10T12:21:33.408Z,51.33
2023-06-10T12:22:53.067Z,51.41
2023-06-10T12:24:06.782Z,51.35
2023-06-10T12:25:10.464Z,51.51
2023-06-10T12:26:12.620Z,52.69
2023-06-10T12:27:14.510Z,51.41
2023-06-10T12:28:17.308Z,52.19
2023-06-10T12:29:25.580Z,52.10
2023-06-10T12:30:28.326Z,50.72
2023-06-10T12:31:30.085Z,50.44
2023-06-10T12:32:45.099Z,48.88
2023-06-10T12:33:47.537Z,48.95
2023-06-10T12:34:49.519Z,47.07
2023-06-10T12:35:53.361Z,46.59
2023-06-10T12:36:55.350Z,47.11
2023-06-10T12:38:05.499Z,46.92
2023-06-10T12:39:08.373Z,47.70
2023-06-10T12:40:11.484Z,47.09
2023-06-10T12:41:13.494Z,44.52
2023-06-10T12:42:15.283Z,44.24
2023-06-10T12:43:24.448Z,44.46
2023-06-10T12:44:33.466Z,44.77
2023-06-10T12:45:44.934Z,42.52
2023-06-10T12:46:46.731Z,42.13
2023-06-10T12:47:48.646Z,42.69
2023-06-10T12:48:52.996Z,42.87
2023-06-10T12:49:54.875Z,43.01
2023-06-10T12:50:58.620Z,40.95
2023-06-10T12:52:00.623Z,41.69
2023-06-10T12:53:02.765Z,41.88
2023-06-10T12:54:04.554Z,42.13
2023-06-10T12:55:06.672Z,41.50
2023-06-10T12:56:08.705Z,42.41
2023-06-10T12:57:12.025Z,42.54
2023-06-10T12:58:14.498Z,43.21
2023-06-10T12:59:16.677Z,43.51
2023-06-10T13:00:19.771Z,42.65
2023-06-10T13:01:21.705Z,43.19
2023-06-10T13:02:25.241Z,39.73
2023-06-10T13:03:27.552Z,40.99
2023-06-10T13:04:29.378Z,38.96
2023-06-10T13:05:31.470Z,39.12
2023-06-10T13:06:37.293Z,38.51
2023-06-10T13:07:39.016Z,40.44
2023-06-10T13:08:40.754Z,39.01
2023-06-10T13:09:42.601Z,38.13
2023-06-10T13:10:44.380Z,40.46
2023-06-10T13:11:46.244Z,37.74
2023-06-10T13:12:49.144Z,38.45
2023-06-10T13:13:51.040Z,38.19
2023-06-10T13:14:57.396Z,38.25
2023-06-10T13:15:59.125Z,37.36
2023-06-10T13:17:00.919Z,37.65
2023-06-10T13:18:06.504Z,36.97
2023-06-10T13:19:08.337Z,38.31
2023-06-10T13:20:10.392Z,39.30
2023-06-10T13:21:12.123Z,38.46
2023-06-10T13:22:13.928Z,36.19
2023-06-10T13:23:16.501Z,34.70
2023-06-10T13:24:18.482Z,35.94
2023-06-10T13:25:20.389Z,34.79
2023-06-10T13:26:22.910Z,35.91
2023-06-10T13:27:24.692Z,36.39
2023-06-10T13:28:26.595Z,33.62
2023-06-10T13:29:28.378Z,35.63
2023-06-10T13:30:30.168Z,34.37
2023-06-10T13:31:32.823Z,34.11
2023-06-10T13:32:34.623Z,34.99
2023-06-10T13:33:36.442Z,33.42
2023-06-10T13:34:38.177Z,33.06
2023-06-10T13:35:39.983Z,34.21
2023-06-10T13:36:41.762Z,34.56
2023-06-10T13:37:43.470Z,33.91